AirNav   Air Wisconsin Up To $57,000 Bonus
 
 1363 users online  

3R8 Honaker Field Airport
Scottsburg, Indiana, USA

GOING TO SCOTTSBURG?


FAA INFORMATION EFFECTIVE 26 JANUARY 2023

Location

FAA Identifier: 3R8
Lat/Long: 38-39-27.7200N 085-47-26.1050W
38-39.462000N 085-47.435083W
38.6577000,-85.7905847
(estimated)
Elevation: 600 ft. / 183 m (estimated)
Variation: 02W (1985)
From city: 3 miles SW of SCOTTSBURG, IN
Time zone: UTC -5 (UTC -4 during Daylight Saving Time)
Zip code: 47170

Airport Operations

Airport use: Open to the public
Activation date: 10/1974
Control tower: no
ARTCC: INDIANAPOLIS CENTER
FSS: TERRE HAUTE FLIGHT SERVICE STATION
NOTAMs facility: HUF (NOTAM-D service available)
Attendance: IREG
Wind indicator: yes
Segmented circle: yes

Airport Communications

CTAF: 122.9
WX AWOS-3 at IMS (16 nm E): 119.175 (812-866-1798)
WX AWOS-3 at SER (17 nm N): 119.425 (812-522-4244)
WX AWOS-3 at JVY (18 nm S): 118.575 (812-246-1278)

Nearby radio navigation aids

VOR radial/distance  VOR name  Freq  Var
IIUr342/34.7LOUISVILLE VORTAC114.8001E

 
NDB name  Hdg/Dist  Freq  Var  ID
CATCH349/11.333102WJV .--- ...-

Airport Services

Parking: hangars and tiedowns

Runway Information

Runway 2/20

Dimensions: 2750 x 100 ft. / 838 x 30 m
Surface: turf, in good condition
Runway edge markings: MKD BY ORANGE CONES.
Operational restrictions: THLD & DSPLCD THLD MKD BY ORANGE TFC CONES.
RUNWAY 2  RUNWAY 20
Latitude: 38-39.253500N38-39.670500N
Longitude: 085-47.548000W085-47.322167W
Elevation: 605.0 ft.600.0 ft.
Traffic pattern: leftleft
Markings: NSTDNSTD
Obstructions: 60 ft. trees, 745 ft. from runway, 200 ft. right of centerline, 12:1 slope to clear60 ft. trees, 20 ft. from runway, 125 ft. right of centerline

Airport Ownership and Management from official FAA records

Ownership: Privately-owned
Owner: INDIANA AVIATION VENTURES LLC
7001 AIRPORT DRIVE
SELLERSBURG, IN 47172
Phone 502-377-4751
Manager: SHAWN HONAKER
7001 AIRPORT DRIVE
SELLERSBURG, IN 47172
Phone 502-377-4751

Airport Operational Statistics

Aircraft based on the field: 20
Single engine airplanes: 2
Ultralights: 18
    
Aircraft operations: avg 67/month *
72% local general aviation
28% transient general aviation
* for 12-month period ending 31 December 2019

Additional Remarks

ARPT CLSD DEC 1 - APR 1.
TREES ALL QUADS.
FOR CD CTC LOUISVILLE APCH AT 502-375-7499

Instrument Procedures

There are no published instrument procedures at 3R8.

Some nearby airports with instrument procedures:

KIMS - Madison Municipal Airport (16 nm E)
KSER - Freeman Municipal Airport (17 nm N)
KJVY - Clark Regional Airport (18 nm S)
KOVO - North Vernon Airport (25 nm N)
KLOU - Bowman Field Airport (26 nm S)
 
Loc | Ops | Rwys | IFR | FBO | Links
Com | Nav | Svcs | Stats | Notes
Area around 3R8 (Honaker Field Airport)
 
Road maps at: MapQuest Bing Google
 
Aerial photo
WARNING: Photo may not be current or correct
Aerial photo of 3R8 (Honaker Field Airport)
Do you have a better or more recent aerial photo of Honaker Field Airport that you would like to share? If so, please send us your photo.

 
Sectional chart

 
Airport distance calculator
Flying to Honaker Field Airport? Find the distance to fly.

From to 3R8

Sunrise and sunset
Times for 01-Feb-2023
 Local
(UTC-5)
 Zulu
(UTC)
Morning civil twilight07:2212:22
Sunrise07:5012:50
Sunset18:0423:04
Evening civil twilight18:3223:32

Current date and time
Zulu (UTC)  01-Feb-2023 22:38:51
Local (UTC-5)  01-Feb-2023 17:38:51
 
METAR
KIMS 
16nm E 
012215Z AUTO 00000KT 10SM CLR M01/M10 A3035 RMK AO2
KJVY 
18nm S 
012155Z AUTO 02003KT 10SM CLR 00/M06 RMK AO2 PWINO
KLOU 
27nm S 
012153Z 00000KT 10SM CLR 00/M09 A3033 RMK AO2 SLP276 T00001089
KSDF 
29nm S 
012156Z 00000KT 10SM FEW025 FEW180 BKN220 01/M08 A3033 RMK AO2 SLP275 T00111078
KBFR 
33nm W 
012215Z AUTO 00000KT 10SM CLR M01/M15 A3032 RMK AO2
TAF
KSDF 
29nm S 
010520Z 0106/0212 35005KT P6SM OVC060 FM010800 35005KT P6SM BKN250 FM011500 05005KT P6SM SCT250 FM012100 VRB03KT P6SM BKN150
NOTAMs
Click for the latest NOTAMs
NOTAMs are issued by the DoD/FAA and will open in a separate window not controlled by AirNav.

 

 
 

Would you like to see your business listed on this page?

 If your business provides an interesting product or service to pilots, flight crews, aircraft, or users of the Honaker Field Airport, you should consider listing it here.  To start the listing process, click on the button below
 
Add a business
 

Other Pages about Honaker Field Airport

Update a link
 
Copyright © AirNav, LLC. All rights reserved. Privacy Policy  Contact